sensor_id;sensor_type;location;lat;lon;timestamp;pressure;altitude;pressure_sealevel;temperature;humidity
69173;BME280;56280;49.662;8.408;2023-06-26T00:00:29;100451.97;;;22.77;51.44
69173;BME280;56280;49.662;8.408;2023-06-26T00:03:08;100470.72;;;22.92;51.54
69173;BME280;56280;49.662;8.408;2023-06-26T00:05:42;100540.03;;;23.35;52.16
69173;BME280;56280;49.662;8.408;2023-06-26T00:08:17;100451.75;;;22.85;51.81
69173;BME280;56280;49.662;8.408;2023-06-26T00:10:58;100420.47;;;22.63;51.75
69173;BME280;56280;49.662;8.408;2023-06-26T00:13:24;100479.50;;;23.01;51.78
69173;BME280;56280;49.662;8.408;2023-06-26T00:15:52;100506.03;;;23.12;52.92
69173;BME280;56280;49.662;8.408;2023-06-26T00:18:30;100501.16;;;22.94;54.62
69173;BME280;56280;49.662;8.408;2023-06-26T00:21:13;100409.91;;;22.19;55.57
69173;BME280;56280;49.662;8.408;2023-06-26T00:23:39;100482.75;;;22.56;55.01
69173;BME280;56280;49.662;8.408;2023-06-26T00:26:10;100415.13;;;22.14;55.18
69173;BME280;56280;49.662;8.408;2023-06-26T00:28:46;100470.44;;;22.53;55.78
69173;BME280;56280;49.662;8.408;2023-06-26T00:31:26;100425.13;;;22.20;55.24
69173;BME280;56280;49.662;8.408;2023-06-26T00:33:57;100423.88;;;22.23;55.37
69173;BME280;56280;49.662;8.408;2023-06-26T00:36:35;100489.19;;;22.55;55.50
69173;BME280;56280;49.662;8.408;2023-06-26T00:39:01;100494.81;;;22.60;56.39
69173;BME280;56280;49.662;8.408;2023-06-26T00:41:26;100480.22;;;22.48;56.95
69173;BME280;56280;49.662;8.408;2023-06-26T00:43:54;100442.03;;;22.29;56.83
69173;BME280;56280;49.662;8.408;2023-06-26T00:46:19;100451.78;;;22.24;57.09
69173;BME280;56280;49.662;8.408;2023-06-26T00:48:46;100478.00;;;22.23;57.60
69173;BME280;56280;49.662;8.408;2023-06-26T00:51:18;100446.50;;;22.09;57.77
69173;BME280;56280;49.662;8.408;2023-06-26T00:53:44;100470.59;;;22.32;56.90
69173;BME280;56280;49.662;8.408;2023-06-26T00:56:10;100480.69;;;22.23;57.25
69173;BME280;56280;49.662;8.408;2023-06-26T00:58:39;100417.91;;;21.93;57.04
69173;BME280;56280;49.662;8.408;2023-06-26T01:01:05;100472.16;;;22.19;57.58
69173;BME280;56280;49.662;8.408;2023-06-26T01:03:34;100454.41;;;22.10;57.42
69173;BME280;56280;49.662;8.408;2023-06-26T01:06:02;100442.34;;;22.06;57.18
69173;BME280;56280;49.662;8.408;2023-06-26T01:08:29;100387.47;;;21.71;56.98
69173;BME280;56280;49.662;8.408;2023-06-26T01:10:54;100454.22;;;22.12;56.96
69173;BME280;56280;49.662;8.408;2023-06-26T01:13:20;100429.16;;;21.90;56.85
69173;BME280;56280;49.662;8.408;2023-06-26T01:15:49;100451.69;;;22.03;56.76
69173;BME280;56280;49.662;8.408;2023-06-26T01:18:14;100417.47;;;21.82;57.14
69173;BME280;56280;49.662;8.408;2023-06-26T01:20:41;100493.69;;;22.34;56.72
69173;BME280;56280;49.662;8.408;2023-06-26T01:23:22;100476.75;;;22.26;56.87
69173;BME280;56280;49.662;8.408;2023-06-26T01:28:52;100470.66;;;22.10;57.00
69173;BME280;56280;49.662;8.408;2023-06-26T01:31:19;100419.31;;;21.75;56.66
69173;BME280;56280;49.662;8.408;2023-06-26T01:33:45;100503.25;;;22.30;56.92
69173;BME280;56280;49.662;8.408;2023-06-26T01:36:25;100409.69;;;21.66;57.27
69173;BME280;56280;49.662;8.408;2023-06-26T01:38:59;100352.81;;;21.18;58.56
69173;BME280;56280;49.662;8.408;2023-06-26T01:41:38;100425.44;;;21.34;59.06
69173;BME280;56280;49.662;8.408;2023-06-26T01:46:43;100468.72;;;21.41;60.04
69173;BME280;56280;49.662;8.408;2023-06-26T01:49:49;100485.78;;;21.41;59.61
69173;BME280;56280;49.662;8.408;2023-06-26T01:57:56;100368.28;;;20.59;60.30
69173;BME280;56280;49.662;8.408;2023-06-26T02:00:31;100494.81;;;21.27;60.74
69173;BME280;56280;49.662;8.408;2023-06-26T02:03:02;100389.47;;;20.62;61.25
69173;BME280;56280;49.662;8.408;2023-06-26T02:05:30;100419.88;;;20.64;60.84
69173;BME280;56280;49.662;8.408;2023-06-26T02:07:58;100385.97;;;20.25;61.62
69173;BME280;56280;49.662;8.408;2023-06-26T02:10:24;100416.78;;;20.31;62.42
69173;BME280;56280;49.662;8.408;2023-06-26T02:12:49;100378.75;;;20.11;62.23
69173;BME280;56280;49.662;8.408;2023-06-26T02:15:15;100418.16;;;20.27;62.52
69173;BME280;56280;49.662;8.408;2023-06-26T02:17:40;100486.66;;;20.77;62.65
69173;BME280;56280;49.662;8.408;2023-06-26T02:20:09;100425.13;;;20.36;62.80
69173;BME280;56280;49.662;8.408;2023-06-26T02:22:36;100415.75;;;20.32;62.43
69173;BME280;56280;49.662;8.408;2023-06-26T02:25:01;100396.50;;;20.20;62.27
69173;BME280;56280;49.662;8.408;2023-06-26T02:27:26;100433.91;;;20.23;62.83
69173;BME280;56280;49.662;8.408;2023-06-26T02:29:52;100476.72;;;20.63;62.58
69173;BME280;56280;49.662;8.408;2023-06-26T02:32:17;100391.97;;;20.06;62.85
69173;BME280;56280;49.662;8.408;2023-06-26T02:34:42;100441.75;;;20.39;61.77
69173;BME280;56280;49.662;8.408;2023-06-26T02:37:10;100449.84;;;20.39;61.61
69173;BME280;56280;49.662;8.408;2023-06-26T02:39:44;100378.31;;;20.07;61.05
69173;BME280;56280;49.662;8.408;2023-06-26T02:42:18;100373.97;;;20.06;60.64
69173;BME280;56280;49.662;8.408;2023-06-26T02:44:43;100471.88;;;20.58;60.24
69173;BME280;56280;49.662;8.408;2023-06-26T02:47:18;100382.63;;;20.01;60.50
69173;BME280;56280;49.662;8.408;2023-06-26T02:49:43;100446.34;;;20.39;60.87
69173;BME280;56280;49.662;8.408;2023-06-26T02:52:08;100474.56;;;20.58;61.32
69173;BME280;56280;49.662;8.408;2023-06-26T02:54:36;100378.25;;;20.00;64.26
69173;BME280;56280;49.662;8.408;2023-06-26T02:57:02;100466.97;;;20.47;65.21
69173;BME280;56280;49.662;8.408;2023-06-26T02:59:27;100430.44;;;20.29;65.31
69173;BME280;56280;49.662;8.408;2023-06-26T03:01:58;100484.91;;;20.69;64.48
69173;BME280;56280;49.662;8.408;2023-06-26T03:04:24;100432.19;;;20.37;63.81
69173;BME280;56280;49.662;8.408;2023-06-26T03:06:49;100453.66;;;20.45;63.00
69173;BME280;56280;49.662;8.408;2023-06-26T03:09:14;100435.59;;;20.46;63.28
69173;BME280;56280;49.662;8.408;2023-06-26T03:11:41;100483.66;;;20.72;63.06
69173;BME280;56280;49.662;8.408;2023-06-26T03:14:06;100385.56;;;20.07;62.57
69173;BME280;56280;49.662;8.408;2023-06-26T03:16:32;100373.56;;;20.09;62.52
69173;BME280;56280;49.662;8.408;2023-06-26T03:18:57;100429.56;;;20.44;61.68
69173;BME280;56280;49.662;8.408;2023-06-26T03:21:22;100408.50;;;20.32;61.13
69173;BME280;56280;49.662;8.408;2023-06-26T03:23:48;100418.41;;;20.47;61.00
69173;BME280;56280;49.662;8.408;2023-06-26T03:26:30;100401.28;;;20.39;60.65
69173;BME280;56280;49.662;8.408;2023-06-26T03:29:01;100468.59;;;20.77;60.21
69173;BME280;56280;49.662;8.408;2023-06-26T03:31:56;100395.44;;;20.36;60.28
69173;BME280;56280;49.662;8.408;2023-06-26T03:34:50;100393.94;;;20.48;61.14
69173;BME280;56280;49.662;8.408;2023-06-26T03:37:26;100378.88;;;20.39;60.70
69173;BME280;56280;49.662;8.408;2023-06-26T03:40:28;100416.97;;;20.51;60.44
69173;BME280;56280;49.662;8.408;2023-06-26T03:43:03;100427.59;;;20.52;60.46
69173;BME280;56280;49.662;8.408;2023-06-26T03:45:36;100508.84;;;21.16;60.36
69173;BME280;56280;49.662;8.408;2023-06-26T03:48:18;100463.31;;;20.91;60.08
69173;BME280;56280;49.662;8.408;2023-06-26T03:50:55;100475.34;;;20.88;60.70
69173;BME280;56280;49.662;8.408;2023-06-26T03:53:33;100451.69;;;20.69;60.69
69173;BME280;56280;49.662;8.408;2023-06-26T03:56:11;100464.34;;;20.90;60.42
69173;BME280;56280;49.662;8.408;2023-06-26T03:59:03;100420.75;;;20.71;59.97
69173;BME280;56280;49.662;8.408;2023-06-26T04:01:57;100498.59;;;21.33;59.85
69173;BME280;56280;49.662;8.408;2023-06-26T04:04:56;100440.13;;;21.25;59.65
69173;BME280;56280;49.662;8.408;2023-06-26T04:07:34;100504.22;;;21.88;59.08
69173;BME280;56280;49.662;8.408;2023-06-26T04:10:15;100389.66;;;21.25;58.62
69173;BME280;56280;49.662;8.408;2023-06-26T04:13:09;100512.56;;;22.28;57.88
69173;BME280;56280;49.662;8.408;2023-06-26T04:15:51;100409.50;;;21.74;57.80
69173;BME280;56280;49.662;8.408;2023-06-26T04:18:22;100384.16;;;21.75;57.50
69173;BME280;56280;49.662;8.408;2023-06-26T04:21:20;100446.31;;;22.17;57.67
69173;BME280;56280;49.662;8.408;2023-06-26T04:24:09;100423.22;;;22.14;57.14
69173;BME280;56280;49.662;8.408;2023-06-26T04:26:40;100519.47;;;22.79;56.00
69173;BME280;56280;49.662;8.408;2023-06-26T04:29:41;100394.31;;;22.21;56.22
69173;BME280;56280;49.662;8.408;2023-06-26T04:32:14;100391.09;;;22.53;55.67
69173;BME280;56280;49.662;8.408;2023-06-26T04:34:42;100423.47;;;23.08;54.87
69173;BME280;56280;49.662;8.408;2023-06-26T04:37:11;100449.50;;;23.36;53.43
69173;BME280;56280;49.662;8.408;2023-06-26T04:39:42;100424.31;;;23.35;53.06
69173;BME280;56280;49.662;8.408;2023-06-26T04:42:08;100408.00;;;23.55;53.67
69173;BME280;56280;49.662;8.408;2023-06-26T04:44:40;100501.34;;;24.19;52.32
69173;BME280;56280;49.662;8.408;2023-06-26T04:47:07;100480.47;;;24.13;52.55
69173;BME280;56280;49.662;8.408;2023-06-26T04:49:33;100406.91;;;23.70;53.74
69173;BME280;56280;49.662;8.408;2023-06-26T04:52:07;100407.94;;;23.75;54.22
69173;BME280;56280;49.662;8.408;2023-06-26T04:54:32;100432.56;;;23.74;53.56
69173;BME280;56280;49.662;8.408;2023-06-26T04:57:03;100437.75;;;23.95;54.40
69173;BME280;56280;49.662;8.408;2023-06-26T04:59:31;100411.53;;;24.21;53.58
69173;BME280;56280;49.662;8.408;2023-06-26T05:01:57;100394.31;;;24.47;52.57
69173;BME280;56280;49.662;8.408;2023-06-26T05:04:22;100447.34;;;25.14;50.59
69173;BME280;56280;49.662;8.408;2023-06-26T05:06:50;100413.00;;;25.19;49.32
69173;BME280;56280;49.662;8.408;2023-06-26T05:09:15;100456.00;;;25.73;50.06
69173;BME280;56280;49.662;8.408;2023-06-26T05:11:41;100460.53;;;26.04;49.10
69173;BME280;56280;49.662;8.408;2023-06-26T05:14:06;100385.81;;;25.81;47.96
69173;BME280;56280;49.662;8.408;2023-06-26T05:16:39;100394.44;;;26.15;47.79
69173;BME280;56280;49.662;8.408;2023-06-26T05:19:08;100388.53;;;26.49;46.81
69173;BME280;56280;49.662;8.408;2023-06-26T05:21:39;100429.63;;;26.78;45.93
69173;BME280;56280;49.662;8.408;2023-06-26T05:24:11;100434.63;;;27.04;44.02
69173;BME280;56280;49.662;8.408;2023-06-26T05:26:45;100466.97;;;27.55;43.73
69173;BME280;56280;49.662;8.408;2023-06-26T05:29:14;100424.50;;;27.47;42.92
69173;BME280;56280;49.662;8.408;2023-06-26T05:31:41;100449.50;;;27.79;43.11
69173;BME280;56280;49.662;8.408;2023-06-26T05:34:07;100498.44;;;28.33;42.21
69173;BME280;56280;49.662;8.408;2023-06-26T05:36:34;100455.13;;;28.25;42.37
69173;BME280;56280;49.662;8.408;2023-06-26T05:39:00;100481.13;;;28.68;41.23
69173;BME280;56280;49.662;8.408;2023-06-26T05:41:26;100479.72;;;28.83;40.59
69173;BME280;56280;49.662;8.408;2023-06-26T05:43:51;100484.13;;;28.84;40.16
69173;BME280;56280;49.662;8.408;2023-06-26T05:46:19;100505.19;;;29.17;40.71
69173;BME280;56280;49.662;8.408;2023-06-26T05:48:44;100512.41;;;29.35;40.13
69173;BME280;56280;49.662;8.408;2023-06-26T05:51:10;100504.34;;;29.45;40.33
69173;BME280;56280;49.662;8.408;2023-06-26T05:53:35;100492.34;;;29.69;39.64
69173;BME280;56280;49.662;8.408;2023-06-26T05:56:01;100495.56;;;29.99;39.19
69173;BME280;56280;49.662;8.408;2023-06-26T05:58:26;100486.66;;;30.09;39.20
69173;BME280;56280;49.662;8.408;2023-06-26T06:00:54;100481.47;;;29.91;38.95
69173;BME280;56280;49.662;8.408;2023-06-26T06:03:20;100495.81;;;29.98;39.64
69173;BME280;56280;49.662;8.408;2023-06-26T06:05:45;100489.72;;;30.13;39.17
69173;BME280;56280;49.662;8.408;2023-06-26T06:08:11;100492.75;;;30.16;39.41
69173;BME280;56280;49.662;8.408;2023-06-26T06:10:36;100492.84;;;30.44;38.55
69173;BME280;56280;49.662;8.408;2023-06-26T06:13:01;100484.13;;;30.47;37.96
69173;BME280;56280;49.662;8.408;2023-06-26T06:15:26;100487.16;;;30.50;37.86
69173;BME280;56280;49.662;8.408;2023-06-26T06:17:52;100483.50;;;30.67;38.98
69173;BME280;56280;49.662;8.408;2023-06-26T06:20:17;100467.63;;;30.69;38.34
69173;BME280;56280;49.662;8.408;2023-06-26T06:22:45;100487.69;;;31.02;38.33
69173;BME280;56280;49.662;8.408;2023-06-26T06:25:10;100500.13;;;31.09;38.40
69173;BME280;56280;49.662;8.408;2023-06-26T06:27:36;100501.59;;;30.95;38.54
69173;BME280;56280;49.662;8.408;2023-06-26T06:30:01;100497.38;;;31.47;38.27
69173;BME280;56280;49.662;8.408;2023-06-26T06:32:27;100497.06;;;31.76;37.20
69173;BME280;56280;49.662;8.408;2023-06-26T06:34:52;100496.00;;;31.82;36.85
69173;BME280;56280;49.662;8.408;2023-06-26T06:37:18;100493.22;;;31.77;37.08
69173;BME280;56280;49.662;8.408;2023-06-26T06:39:43;100483.09;;;31.88;36.79
69173;BME280;56280;49.662;8.408;2023-06-26T06:42:08;100496.63;;;31.94;37.16
69173;BME280;56280;49.662;8.408;2023-06-26T06:44:34;100491.06;;;31.89;37.01
69173;BME280;56280;49.662;8.408;2023-06-26T06:46:59;100479.38;;;32.04;36.45
69173;BME280;56280;49.662;8.408;2023-06-26T06:49:24;100484.41;;;32.33;36.34
69173;BME280;56280;49.662;8.408;2023-06-26T06:51:49;100481.47;;;32.60;35.53
69173;BME280;56280;49.662;8.408;2023-06-26T06:54:17;100488.16;;;32.90;34.37
69173;BME280;56280;49.662;8.408;2023-06-26T06:56:43;100473.59;;;33.00;35.03
69173;BME280;56280;49.662;8.408;2023-06-26T06:59:08;100494.47;;;32.90;35.54
69173;BME280;56280;49.662;8.408;2023-06-26T07:01:33;100488.72;;;33.02;35.01
69173;BME280;56280;49.662;8.408;2023-06-26T07:03:59;100466.72;;;33.07;34.13
69173;BME280;56280;49.662;8.408;2023-06-26T07:06:24;100476.63;;;33.39;32.90
69173;BME280;56280;49.662;8.408;2023-06-26T07:08:49;100481.53;;;33.63;33.33
69173;BME280;56280;49.662;8.408;2023-06-26T07:11:15;100483.16;;;33.79;32.30
69173;BME280;56280;49.662;8.408;2023-06-26T07:13:41;100475.41;;;33.92;31.97
69173;BME280;56280;49.662;8.408;2023-06-26T07:16:06;100477.81;;;34.14;31.94
69173;BME280;56280;49.662;8.408;2023-06-26T07:18:31;100478.88;;;34.18;31.06
69173;BME280;56280;49.662;8.408;2023-06-26T07:20:56;100478.72;;;33.89;31.53
69173;BME280;56280;49.662;8.408;2023-06-26T07:23:23;100467.44;;;33.90;32.00
69173;BME280;56280;49.662;8.408;2023-06-26T07:25:48;100467.63;;;34.09;32.18
69173;BME280;56280;49.662;8.408;2023-06-26T07:28:13;100465.66;;;34.20;32.08
69173;BME280;56280;49.662;8.408;2023-06-26T07:30:39;100467.28;;;34.31;31.50
69173;BME280;56280;49.662;8.408;2023-06-26T07:33:04;100475.50;;;34.42;31.67
69173;BME280;56280;49.662;8.408;2023-06-26T07:35:30;100468.97;;;34.72;31.45
69173;BME280;56280;49.662;8.408;2023-06-26T07:37:55;100465.16;;;34.63;31.58
69173;BME280;56280;49.662;8.408;2023-06-26T07:40:21;100478.34;;;34.76;31.04
69173;BME280;56280;49.662;8.408;2023-06-26T07:42:46;100489.44;;;34.61;31.04
69173;BME280;56280;49.662;8.408;2023-06-26T07:45:11;100498.38;;;34.47;31.54
69173;BME280;56280;49.662;8.408;2023-06-26T07:47:38;100470.31;;;34.80;30.88
69173;BME280;56280;49.662;8.408;2023-06-26T07:50:04;100486.50;;;34.92;30.19
69173;BME280;56280;49.662;8.408;2023-06-26T07:52:29;100496.28;;;35.13;29.96
69173;BME280;56280;49.662;8.408;2023-06-26T07:54:58;100488.88;;;35.03;29.67
69173;BME280;56280;49.662;8.408;2023-06-26T07:57:24;100504.34;;;35.39;29.20
69173;BME280;56280;49.662;8.408;2023-06-26T07:59:49;100485.84;;;35.39;30.29
69173;BME280;56280;49.662;8.408;2023-06-26T08:02:15;100475.47;;;35.55;28.86
69173;BME280;56280;49.662;8.408;2023-06-26T08:04:40;100491.97;;;35.90;28.32
69173;BME280;56280;49.662;8.408;2023-06-26T08:07:06;100481.09;;;35.69;29.53
69173;BME280;56280;49.662;8.408;2023-06-26T08:09:31;100491.06;;;35.70;29.52
69173;BME280;56280;49.662;8.408;2023-06-26T08:11:58;100490.00;;;35.90;28.73
69173;BME280;56280;49.662;8.408;2023-06-26T08:14:23;100483.44;;;35.86;28.75
69173;BME280;56280;49.662;8.408;2023-06-26T08:16:51;100496.97;;;36.12;28.17
69173;BME280;56280;49.662;8.408;2023-06-26T08:19:17;100493.03;;;35.94;28.46
69173;BME280;56280;49.662;8.408;2023-06-26T08:21:43;100496.84;;;35.98;28.91
69173;BME280;56280;49.662;8.408;2023-06-26T08:24:09;100495.28;;;36.35;27.61
69173;BME280;56280;49.662;8.408;2023-06-26T08:26:35;100492.38;;;36.26;27.91
69173;BME280;56280;49.662;8.408;2023-06-26T08:29:00;100477.25;;;35.94;27.77
69173;BME280;56280;49.662;8.408;2023-06-26T08:31:26;100500.47;;;36.18;28.46
69173;BME280;56280;49.662;8.408;2023-06-26T08:33:51;100496.09;;;35.92;28.29
69173;BME280;56280;49.662;8.408;2023-06-26T08:36:16;100503.75;;;35.42;29.01
69173;BME280;56280;49.662;8.408;2023-06-26T08:38:42;100473.03;;;35.24;28.76
69173;BME280;56280;49.662;8.408;2023-06-26T08:41:08;100499.75;;;35.58;29.83
69173;BME280;56280;49.662;8.408;2023-06-26T08:43:34;100476.16;;;35.66;28.91
69173;BME280;56280;49.662;8.408;2023-06-26T08:46:00;100499.06;;;36.20;28.20
69173;BME280;56280;49.662;8.408;2023-06-26T08:48:25;100496.19;;;36.30;27.93
69173;BME280;56280;49.662;8.408;2023-06-26T08:50:53;100498.59;;;36.13;28.54
69173;BME280;56280;49.662;8.408;2023-06-26T08:55:54;100510.38;;;36.00;27.75
69173;BME280;56280;49.662;8.408;2023-06-26T08:58:21;100518.19;;;34.99;28.50
69173;BME280;56280;49.662;8.408;2023-06-26T09:00:47;100508.69;;;34.71;29.40
69173;BME280;56280;49.662;8.408;2023-06-26T09:03:14;100514.53;;;33.99;30.37
69173;BME280;56280;49.662;8.408;2023-06-26T09:05:40;100504.66;;;33.88;30.72
69173;BME280;56280;49.662;8.408;2023-06-26T09:08:06;100510.72;;;32.82;32.52
69173;BME280;56280;49.662;8.408;2023-06-26T09:10:32;100517.03;;;33.85;31.39
69173;BME280;56280;49.662;8.408;2023-06-26T09:12:57;100518.47;;;34.48;30.02
69173;BME280;56280;49.662;8.408;2023-06-26T09:15:23;100525.53;;;34.75;30.70
69173;BME280;56280;49.662;8.408;2023-06-26T09:17:48;100522.59;;;35.00;29.36
69173;BME280;56280;49.662;8.408;2023-06-26T09:20:14;100517.38;;;34.94;29.10
69173;BME280;56280;49.662;8.408;2023-06-26T09:22:41;100520.81;;;34.80;28.59
69173;BME280;56280;49.662;8.408;2023-06-26T09:25:08;100523.25;;;34.32;29.28
69173;BME280;56280;49.662;8.408;2023-06-26T09:27:35;100526.75;;;34.48;29.68
69173;BME280;56280;49.662;8.408;2023-06-26T09:30:02;100515.97;;;34.51;29.19
69173;BME280;56280;49.662;8.408;2023-06-26T09:32:27;100522.75;;;34.80;30.65
69173;BME280;56280;49.662;8.408;2023-06-26T09:34:53;100514.28;;;35.05;30.89
69173;BME280;56280;49.662;8.408;2023-06-26T09:37:21;100526.97;;;34.62;29.99
69173;BME280;56280;49.662;8.408;2023-06-26T09:39:46;100530.47;;;34.78;30.04
69173;BME280;56280;49.662;8.408;2023-06-26T09:42:13;100522.56;;;35.05;30.24
69173;BME280;56280;49.662;8.408;2023-06-26T09:44:47;100514.69;;;35.23;30.50
69173;BME280;56280;49.662;8.408;2023-06-26T09:47:16;100523.09;;;35.42;29.00
69173;BME280;56280;49.662;8.408;2023-06-26T09:49:42;100531.81;;;35.54;29.45
69173;BME280;56280;49.662;8.408;2023-06-26T09:52:08;100533.31;;;35.07;29.57
69173;BME280;56280;49.662;8.408;2023-06-26T09:54:33;100536.53;;;34.09;30.67
69173;BME280;56280;49.662;8.408;2023-06-26T09:57:13;100537.56;;;32.54;32.93
69173;BME280;56280;49.662;8.408;2023-06-26T09:59:40;100541.56;;;31.13;35.23
69173;BME280;56280;49.662;8.408;2023-06-26T10:02:05;100544.63;;;30.23;36.75
69173;BME280;56280;49.662;8.408;2023-06-26T10:04:31;100540.41;;;30.15;36.77
69173;BME280;56280;49.662;8.408;2023-06-26T10:06:58;100547.03;;;29.63;37.50
69173;BME280;56280;49.662;8.408;2023-06-26T10:09:24;100542.44;;;30.03;38.08
69173;BME280;56280;49.662;8.408;2023-06-26T10:11:56;100540.97;;;30.57;37.95
69173;BME280;56280;49.662;8.408;2023-06-26T10:14:26;100538.59;;;30.92;37.04
69173;BME280;56280;49.662;8.408;2023-06-26T10:16:51;100527.75;;;31.30;35.50
69173;BME280;56280;49.662;8.408;2023-06-26T10:19:19;100535.91;;;31.95;35.34
69173;BME280;56280;49.662;8.408;2023-06-26T10:21:50;100537.38;;;32.08;34.25
69173;BME280;56280;49.662;8.408;2023-06-26T10:24:16;100539.47;;;31.53;35.18
69173;BME280;56280;49.662;8.408;2023-06-26T10:26:44;100533.63;;;30.89;36.07
69173;BME280;56280;49.662;8.408;2023-06-26T10:29:12;100525.03;;;30.81;36.43
69173;BME280;56280;49.662;8.408;2023-06-26T10:31:40;100527.13;;;30.96;36.91
69173;BME280;56280;49.662;8.408;2023-06-26T10:34:07;100527.81;;;31.78;35.94
69173;BME280;56280;49.662;8.408;2023-06-26T10:36:35;100503.03;;;32.10;35.46
69173;BME280;56280;49.662;8.408;2023-06-26T10:39:04;100527.22;;;31.33;36.18
69173;BME280;56280;49.662;8.408;2023-06-26T10:41:36;100530.56;;;31.78;35.02
69173;BME280;56280;49.662;8.408;2023-06-26T10:46:27;100526.78;;;31.52;34.95
69173;BME280;56280;49.662;8.408;2023-06-26T10:48:59;100532.66;;;30.29;36.80
69173;BME280;56280;49.662;8.408;2023-06-26T10:51:28;100525.13;;;30.91;37.79
69173;BME280;56280;49.662;8.408;2023-06-26T10:53:57;100531.09;;;31.75;36.52
69173;BME280;56280;49.662;8.408;2023-06-26T10:57:01;100521.00;;;32.33;36.09
69173;BME280;56280;49.662;8.408;2023-06-26T10:59:28;100520.91;;;32.86;33.85
69173;BME280;56280;49.662;8.408;2023-06-26T11:01:58;100527.81;;;33.20;33.65
69173;BME280;56280;49.662;8.408;2023-06-26T11:04:44;100515.16;;;33.55;33.35
69173;BME280;56280;49.662;8.408;2023-06-26T11:07:19;100515.94;;;33.91;33.08
69173;BME280;56280;49.662;8.408;2023-06-26T11:12:43;100520.56;;;34.06;31.89
69173;BME280;56280;49.662;8.408;2023-06-26T11:15:09;100521.66;;;34.10;31.66
69173;BME280;56280;49.662;8.408;2023-06-26T11:17:36;100513.59;;;34.34;31.67
69173;BME280;56280;49.662;8.408;2023-06-26T11:20:05;100523.53;;;34.30;32.17
69173;BME280;56280;49.662;8.408;2023-06-26T11:22:34;100526.03;;;34.11;31.71
69173;BME280;56280;49.662;8.408;2023-06-26T11:25:00;100524.50;;;33.85;31.96
69173;BME280;56280;49.662;8.408;2023-06-26T11:27:38;100512.06;;;33.92;32.25
69173;BME280;56280;49.662;8.408;2023-06-26T11:30:08;100522.28;;;33.87;31.30
69173;BME280;56280;49.662;8.408;2023-06-26T11:32:35;100507.72;;;33.45;31.52
69173;BME280;56280;49.662;8.408;2023-06-26T11:35:01;100518.44;;;33.67;31.43
69173;BME280;56280;49.662;8.408;2023-06-26T11:37:26;100521.47;;;33.76;31.89
69173;BME280;56280;49.662;8.408;2023-06-26T11:39:51;100529.47;;;33.77;31.04
69173;BME280;56280;49.662;8.408;2023-06-26T11:42:18;100537.69;;;33.93;30.08
69173;BME280;56280;49.662;8.408;2023-06-26T11:44:44;100531.03;;;34.09;30.71
69173;BME280;56280;49.662;8.408;2023-06-26T11:47:17;100512.81;;;34.08;30.63
69173;BME280;56280;49.662;8.408;2023-06-26T11:49:44;100539.28;;;34.25;30.17
69173;BME280;56280;49.662;8.408;2023-06-26T11:52:09;100511.22;;;34.02;29.89
69173;BME280;56280;49.662;8.408;2023-06-26T11:54:34;100523.31;;;34.06;30.10
69173;BME280;56280;49.662;8.408;2023-06-26T11:57:00;100522.31;;;33.76;30.08
69173;BME280;56280;49.662;8.408;2023-06-26T11:59:37;100523.94;;;33.77;30.56
69173;BME280;56280;49.662;8.408;2023-06-26T12:02:13;100531.94;;;33.89;30.14
69173;BME280;56280;49.662;8.408;2023-06-26T12:04:43;100529.44;;;33.88;29.58
69173;BME280;56280;49.662;8.408;2023-06-26T12:07:09;100529.19;;;33.28;30.46
69173;BME280;56280;49.662;8.408;2023-06-26T12:09:40;100528.56;;;32.69;30.61
69173;BME280;56280;49.662;8.408;2023-06-26T12:12:08;100517.72;;;31.89;31.34
69173;BME280;56280;49.662;8.408;2023-06-26T12:14:34;100512.28;;;31.99;31.89
69173;BME280;56280;49.662;8.408;2023-06-26T12:17:09;100533.41;;;32.41;30.89
69173;BME280;56280;49.662;8.408;2023-06-26T12:19:39;100529.19;;;32.23;29.54
69173;BME280;56280;49.662;8.408;2023-06-26T12:22:08;100526.16;;;32.25;30.76
69173;BME280;56280;49.662;8.408;2023-06-26T12:24:36;100525.00;;;32.89;29.25
69173;BME280;56280;49.662;8.408;2023-06-26T12:27:02;100516.50;;;32.90;29.89
69173;BME280;56280;49.662;8.408;2023-06-26T12:29:32;100528.94;;;33.19;29.06
69173;BME280;56280;49.662;8.408;2023-06-26T12:31:58;100525.63;;;33.32;28.83
69173;BME280;56280;49.662;8.408;2023-06-26T12:34:31;100513.50;;;33.38;28.51
69173;BME280;56280;49.662;8.408;2023-06-26T12:37:05;100526.97;;;33.14;28.95
69173;BME280;56280;49.662;8.408;2023-06-26T12:39:48;100526.16;;;33.14;28.54
69173;BME280;56280;49.662;8.408;2023-06-26T12:42:16;100524.53;;;33.23;29.51
69173;BME280;56280;49.662;8.408;2023-06-26T12:44:42;100522.59;;;33.44;28.98
69173;BME280;56280;49.662;8.408;2023-06-26T12:47:12;100509.63;;;33.60;29.66
69173;BME280;56280;49.662;8.408;2023-06-26T12:49:42;100530.03;;;33.54;29.04
69173;BME280;56280;49.662;8.408;2023-06-26T12:52:09;100512.94;;;33.05;27.86
69173;BME280;56280;49.662;8.408;2023-06-26T12:54:35;100528.41;;;33.22;27.88
69173;BME280;56280;49.662;8.408;2023-06-26T12:57:01;100527.78;;;33.10;28.23
69173;BME280;56280;49.662;8.408;2023-06-26T12:59:29;100515.13;;;33.03;28.01
69173;BME280;56280;49.662;8.408;2023-06-26T13:01:54;100515.97;;;33.14;28.04
69173;BME280;56280;49.662;8.408;2023-06-26T13:04:19;100515.41;;;33.53;28.26
69173;BME280;56280;49.662;8.408;2023-06-26T13:06:45;100519.00;;;33.23;27.61
69173;BME280;56280;49.662;8.408;2023-06-26T13:09:10;100521.78;;;33.38;28.51
69173;BME280;56280;49.662;8.408;2023-06-26T13:11:36;100517.34;;;33.01;28.51
69173;BME280;56280;49.662;8.408;2023-06-26T13:14:02;100533.28;;;32.89;28.77
69173;BME280;56280;49.662;8.408;2023-06-26T13:16:27;100507.66;;;32.63;28.57
69173;BME280;56280;49.662;8.408;2023-06-26T13:18:52;100516.94;;;32.62;27.24